Time;durP1;ratioP1;P1;durP2;ratioP2;P2;SDS_P1;SDS_P2;PMS_P1;PMS_P2;Temp;Humidity;BMP_temperature;BMP_pressure;BME280_temperature;BME280_humidity;BME280_pressure;Samples;Min_cycle;Max_cycle;Signal;HPM_P1;HPM_P2
2022/04/28 00:01:03;;;;;;;12.68;8.55;;;;;;;;;;5007771;28;20125;-77
2022/04/28 00:03:29;;;;;;;11.32;8.05;;;;;;;;;;5024001;28;20038;-77
2022/04/28 00:05:54;;;;;;;13.85;8.90;;;;;;;;;;5024926;28;20906;-78
2022/04/28 00:08:20;;;;;;;12.50;8.40;;;;;;;;;;5001550;28;20041;-78
2022/04/28 00:10:46;;;;;;;13.77;8.88;;;;;;;;;;5024091;28;20079;-77
2022/04/28 00:13:14;;;;;;;12.82;8.73;;;;;;;;;;5007954;28;20045;-79
2022/04/28 00:15:40;;;;;;;13.50;8.73;;;;;;;;;;5008839;28;20061;-78
2022/04/28 00:18:05;;;;;;;12.60;9.13;;;;;;;;;;5003082;28;20080;-78
2022/04/28 00:20:31;;;;;;;12.75;9.00;;;;;;;;;;5007664;28;20030;-78
2022/04/28 00:22:56;;;;;;;12.50;9.00;;;;;;;;;;5008710;28;20052;-81
2022/04/28 00:25:22;;;;;;;13.32;8.95;;;;;;;;;;5007924;28;20390;-77
2022/04/28 00:27:48;;;;;;;12.73;9.02;;;;;;;;;;5007690;28;20038;-78
2022/04/28 00:30:13;;;;;;;12.07;9.00;;;;;;;;;;5007663;28;20401;-77
2022/04/28 00:32:39;;;;;;;13.30;8.82;;;;;;;;;;5006587;28;20063;-77
2022/04/28 00:35:04;;;;;;;14.00;8.90;;;;;;;;;;5007603;28;20041;-78
2022/04/28 00:37:30;;;;;;;13.88;9.40;;;;;;;;;;5022186;28;20052;-78
2022/04/28 00:39:55;;;;;;;12.10;9.30;;;;;;;;;;5003514;28;20040;-79
2022/04/28 00:42:20;;;;;;;16.25;9.60;;;;;;;;;;5007351;28;20041;-79
2022/04/28 00:44:46;;;;;;;13.13;9.32;;;;;;;;;;5007716;28;20076;-77
2022/04/28 00:47:13;;;;;;;13.52;9.25;;;;;;;;;;5006873;28;20060;-78
2022/04/28 00:52:23;;;;;;;14.30;8.75;;;;;;;;;;5023775;28;20531;-77
2022/04/28 00:54:51;;;;;;;12.77;8.50;;;;;;;;;;5007881;28;20978;-77
2022/04/28 00:57:17;;;;;;;13.68;8.70;;;;;;;;;;5023327;28;20057;-78
2022/04/28 00:59:45;;;;;;;12.65;9.05;;;;;;;;;;5007336;28;20049;-78
2022/04/28 01:02:10;;;;;;;13.77;8.25;;;;;;;;;;5023302;28;20037;-79
2022/04/28 01:07:04;;;;;;;13.30;8.50;;;;;;;;;;4972924;28;20043;-82
2022/04/28 01:09:29;;;;;;;14.02;8.77;;;;;;;;;;4975881;28;20433;-82
2022/04/28 01:11:55;;;;;;;13.68;9.20;;;;;;;;;;4975286;28;20038;-83
2022/04/28 01:14:20;;;;;;;13.57;8.77;;;;;;;;;;4944652;28;20069;-82
2022/04/28 01:16:45;;;;;;;13.63;7.75;;;;;;;;;;4966763;28;20035;-82
2022/04/28 01:19:11;;;;;;;11.60;8.70;;;;;;;;;;4973224;28;20031;-83
2022/04/28 01:21:36;;;;;;;11.35;8.10;;;;;;;;;;4963690;28;20099;-83
2022/04/28 01:24:02;;;;;;;13.75;8.82;;;;;;;;;;4964837;28;20113;-83
2022/04/28 01:26:28;;;;;;;11.13;8.35;;;;;;;;;;4957595;28;20043;-82
2022/04/28 01:28:54;;;;;;;11.32;8.25;;;;;;;;;;4973693;28;20093;-80
2022/04/28 01:31:19;;;;;;;11.82;8.77;;;;;;;;;;4958868;28;20047;-83
2022/04/28 01:33:44;;;;;;;13.02;8.52;;;;;;;;;;4961270;28;20047;-82
2022/04/28 01:36:10;;;;;;;13.00;8.88;;;;;;;;;;4973535;28;20633;-82
2022/04/28 01:38:35;;;;;;;12.65;8.45;;;;;;;;;;4962884;28;20042;-83
2022/04/28 01:41:01;;;;;;;13.13;9.07;;;;;;;;;;4951828;28;20034;-82
2022/04/28 01:43:26;;;;;;;15.63;9.38;;;;;;;;;;4975538;28;20041;-83
2022/04/28 01:45:51;;;;;;;15.65;9.20;;;;;;;;;;4946134;28;20062;-82
2022/04/28 01:48:16;;;;;;;13.88;9.13;;;;;;;;;;4951253;28;20041;-82
2022/04/28 01:54:57;;;;;;;14.93;9.13;;;;;;;;;;4967728;28;20041;-83
2022/04/28 01:56:14;;;;;;;14.13;9.30;;;;;;;;;;4974809;28;20046;-82
2022/04/28 01:58:39;;;;;;;15.30;9.23;;;;;;;;;;4946591;28;20027;-82
2022/04/28 02:01:05;;;;;;;14.32;9.50;;;;;;;;;;4958587;28;20046;-82
2022/04/28 02:03:30;;;;;;;13.43;9.15;;;;;;;;;;4974535;28;20031;-82
2022/04/28 02:05:56;;;;;;;13.73;9.18;;;;;;;;;;4975034;28;20042;-83
2022/04/28 02:08:22;;;;;;;13.55;9.40;;;;;;;;;;4963518;28;20503;-83
2022/04/28 02:10:47;;;;;;;14.80;10.10;;;;;;;;;;4944483;28;20497;-83
2022/04/28 02:13:13;;;;;;;14.45;9.68;;;;;;;;;;4975035;28;20071;-83
2022/04/28 02:15:38;;;;;;;14.23;9.65;;;;;;;;;;4964907;28;20031;-83
2022/04/28 02:18:03;;;;;;;12.95;9.07;;;;;;;;;;4960783;28;20482;-82
2022/04/28 02:20:29;;;;;;;13.20;9.55;;;;;;;;;;4947954;28;20038;-82
2022/04/28 02:22:54;;;;;;;12.93;9.32;;;;;;;;;;4943147;28;20389;-81
2022/04/28 02:25:19;;;;;;;17.88;9.52;;;;;;;;;;4959517;28;20045;-82
2022/04/28 02:27:45;;;;;;;13.10;8.75;;;;;;;;;;4960803;28;20039;-82
2022/04/28 02:30:10;;;;;;;13.45;8.63;;;;;;;;;;4960587;28;20046;-84
2022/04/28 02:35:19;;;;;;;13.40;9.20;;;;;;;;;;4973033;28;20038;-83
2022/04/28 02:37:45;;;;;;;13.68;9.75;;;;;;;;;;4943563;28;20054;-83
2022/04/28 02:40:10;;;;;;;14.23;9.52;;;;;;;;;;4959368;28;20098;-84
2022/04/28 02:42:35;;;;;;;14.05;9.57;;;;;;;;;;4962679;28;20035;-83
2022/04/28 02:45:01;;;;;;;13.43;9.25;;;;;;;;;;4960830;28;20070;-82
2022/04/28 02:47:26;;;;;;;13.98;10.18;;;;;;;;;;4958257;28;20429;-83
2022/04/28 02:49:51;;;;;;;14.23;9.50;;;;;;;;;;4958284;28;20041;-83
2022/04/28 02:52:17;;;;;;;13.68;9.30;;;;;;;;;;4970268;28;20915;-83
2022/04/28 02:54:42;;;;;;;12.52;8.52;;;;;;;;;;4959182;28;20038;-83
2022/04/28 02:57:07;;;;;;;14.50;10.00;;;;;;;;;;4966109;28;20047;-83
2022/04/28 02:59:33;;;;;;;15.57;9.73;;;;;;;;;;4946519;28;20081;-83
2022/04/28 03:01:58;;;;;;;14.73;8.98;;;;;;;;;;4977013;28;20037;-83
2022/04/28 03:04:25;;;;;;;14.68;9.40;;;;;;;;;;4954626;28;20125;-83
2022/04/28 03:12:18;;;;;;;13.43;8.93;;;;;;;;;;4975493;28;20092;-84
2022/04/28 03:14:44;;;;;;;15.13;9.43;;;;;;;;;;4961095;28;20146;-83
2022/04/28 03:17:09;;;;;;;14.85;10.27;;;;;;;;;;4968057;28;20031;-82
2022/04/28 03:19:34;;;;;;;14.35;9.38;;;;;;;;;;4964211;28;20404;-81
2022/04/28 03:22:00;;;;;;;15.70;9.35;;;;;;;;;;4952283;28;20038;-80
2022/04/28 03:24:25;;;;;;;15.45;9.93;;;;;;;;;;4967950;28;20062;-81
2022/04/28 03:26:50;;;;;;;12.63;9.18;;;;;;;;;;4964381;28;20042;-81
2022/04/28 03:29:16;;;;;;;14.80;9.93;;;;;;;;;;4968180;28;21591;-83
2022/04/28 03:31:41;;;;;;;12.05;8.70;;;;;;;;;;4972085;28;20363;-81
2022/04/28 03:34:07;;;;;;;13.15;9.27;;;;;;;;;;4947191;28;20057;-81
2022/04/28 03:36:51;;;;;;;15.30;9.32;;;;;;;;;;4966343;28;20050;-81
2022/04/28 03:39:16;;;;;;;13.40;9.55;;;;;;;;;;4952181;28;20046;-82
2022/04/28 03:41:42;;;;;;;14.85;9.70;;;;;;;;;;4976891;28;20027;-81
2022/04/28 03:44:08;;;;;;;15.48;9.45;;;;;;;;;;4947681;28;20038;-82
2022/04/28 03:46:34;;;;;;;12.95;9.07;;;;;;;;;;4948746;28;20540;-81
2022/04/28 03:48:59;;;;;;;13.65;8.90;;;;;;;;;;4953892;28;20189;-81
2022/04/28 03:51:24;;;;;;;11.98;9.00;;;;;;;;;;4946971;28;20049;-81
2022/04/28 03:53:50;;;;;;;13.55;8.50;;;;;;;;;;4966182;28;20133;-81
2022/04/28 03:56:16;;;;;;;13.65;9.13;;;;;;;;;;4962376;28;20054;-81
2022/04/28 03:58:42;;;;;;;16.45;9.73;;;;;;;;;;4952563;28;20054;-81
2022/04/28 04:01:07;;;;;;;14.63;9.57;;;;;;;;;;4968723;28;20054;-81
2022/04/28 04:03:33;;;;;;;13.35;9.85;;;;;;;;;;4980912;28;20027;-82
2022/04/28 04:05:58;;;;;;;13.65;9.40;;;;;;;;;;4947300;28;20053;-81
2022/04/28 04:08:23;;;;;;;11.77;9.05;;;;;;;;;;4955687;28;20502;-81
2022/04/28 04:10:49;;;;;;;17.35;9.80;;;;;;;;;;4964130;28;20035;-83
2022/04/28 04:13:14;;;;;;;13.13;9.95;;;;;;;;;;4977707;28;20039;-83
2022/04/28 04:15:39;;;;;;;13.68;9.55;;;;;;;;;;4963888;28;20038;-82
2022/04/28 04:18:05;;;;;;;11.95;9.23;;;;;;;;;;4952214;28;20038;-81
2022/04/28 04:20:30;;;;;;;12.50;9.57;;;;;;;;;;4976857;28;20165;-80
2022/04/28 04:22:55;;;;;;;14.38;9.80;;;;;;;;;;4966375;28;20042;-80
2022/04/28 04:25:21;;;;;;;12.82;9.45;;;;;;;;;;4967605;28;20093;-82
2022/04/28 04:27:47;;;;;;;14.30;10.02;;;;;;;;;;4946381;28;20490;-81
2022/04/28 04:32:56;;;;;;;13.05;9.40;;;;;;;;;;4976480;28;20033;-81
2022/04/28 04:35:23;;;;;;;15.25;9.38;;;;;;;;;;4962893;28;20038;-81
2022/04/28 04:37:49;;;;;;;14.68;9.30;;;;;;;;;;4969855;28;20572;-81
2022/04/28 04:40:14;;;;;;;14.05;9.35;;;;;;;;;;4953795;28;20031;-81
2022/04/28 04:42:40;;;;;;;14.60;9.50;;;;;;;;;;4963451;28;20066;-88
2022/04/28 04:45:06;;;;;;;11.93;9.02;;;;;;;;;;4962091;28;20106;-88
2022/04/28 04:47:32;;;;;;;14.95;9.82;;;;;;;;;;4962669;28;20039;-84
2022/04/28 04:49:57;;;;;;;14.73;10.15;;;;;;;;;;4963591;28;20046;-84
2022/04/28 04:52:23;;;;;;;12.30;8.90;;;;;;;;;;4964258;28;20125;-87
2022/04/28 04:54:48;;;;;;;12.05;9.32;;;;;;;;;;4953948;28;20042;-86
2022/04/28 04:57:13;;;;;;;14.43;9.10;;;;;;;;;;4949797;28;20050;-89
2022/04/28 04:59:38;;;;;;;14.10;9.43;;;;;;;;;;4970157;28;20038;-86
2022/04/28 05:02:04;;;;;;;15.02;9.90;;;;;;;;;;4962094;28;20282;-87
2022/04/28 05:04:29;;;;;;;15.05;9.05;;;;;;;;;;4954372;28;20474;-85
2022/04/28 05:06:55;;;;;;;11.90;8.85;;;;;;;;;;4947510;28;20039;-89
2022/04/28 05:09:20;;;;;;;12.20;9.02;;;;;;;;;;4948520;28;20493;-89
2022/04/28 05:11:45;;;;;;;12.07;8.80;;;;;;;;;;4947400;28;20129;-90
2022/04/28 05:14:11;;;;;;;13.13;9.32;;;;;;;;;;4960986;28;20042;-87
2022/04/28 05:16:36;;;;;;;12.27;8.77;;;;;;;;;;4945557;28;20035;-89
2022/04/28 05:19:02;;;;;;;11.85;8.55;;;;;;;;;;4947266;28;20093;-91
2022/04/28 05:21:27;;;;;;;12.32;8.65;;;;;;;;;;4950238;28;20045;-86
2022/04/28 05:23:52;;;;;;;14.00;9.23;;;;;;;;;;4961091;28;20460;-87
2022/04/28 05:26:18;;;;;;;13.15;8.70;;;;;;;;;;4951042;28;20378;-87
2022/04/28 05:28:44;;;;;;;11.40;8.50;;;;;;;;;;4951675;28;20583;-89
2022/04/28 05:31:09;;;;;;;13.65;9.18;;;;;;;;;;4965129;28;20497;-86
2022/04/28 05:33:34;;;;;;;13.30;8.80;;;;;;;;;;4963532;28;20038;-87
2022/04/28 05:36:00;;;;;;;13.18;8.85;;;;;;;;;;4949972;28;20378;-85
2022/04/28 05:38:25;;;;;;;12.27;8.60;;;;;;;;;;4958288;28;20046;-86
2022/04/28 05:40:51;;;;;;;11.68;8.70;;;;;;;;;;4949401;28;20041;-86
2022/04/28 05:46:00;;;;;;;13.90;8.57;;;;;;;;;;4962888;28;20045;-87
2022/04/28 05:48:25;;;;;;;13.73;8.30;;;;;;;;;;4948038;28;20034;-88
2022/04/28 05:50:50;;;;;;;11.60;8.98;;;;;;;;;;4958813;28;20050;-80
2022/04/28 05:53:16;;;;;;;13.95;8.75;;;;;;;;;;4965560;28;20146;-80
2022/04/28 05:55:42;;;;;;;13.48;8.65;;;;;;;;;;4944490;28;20031;-83
2022/04/28 05:58:08;;;;;;;12.00;8.57;;;;;;;;;;4943151;28;20074;-83
2022/04/28 06:00:33;;;;;;;14.77;9.05;;;;;;;;;;4948359;28;20065;-83
2022/04/28 06:03:02;;;;;;;14.65;8.95;;;;;;;;;;4949332;28;20038;-81
2022/04/28 06:05:27;;;;;;;14.93;9.93;;;;;;;;;;4971275;28;20460;-81
2022/04/28 06:07:53;;;;;;;17.52;8.95;;;;;;;;;;4943476;28;20038;-84
2022/04/28 06:10:18;;;;;;;13.00;8.52;;;;;;;;;;4949422;28;20034;-84
2022/04/28 06:12:44;;;;;;;13.95;8.80;;;;;;;;;;4949450;28;20477;-84
2022/04/28 06:15:10;;;;;;;16.45;9.43;;;;;;;;;;4943350;28;20062;-84
2022/04/28 06:17:35;;;;;;;13.10;9.20;;;;;;;;;;4965476;28;20034;-84
2022/04/28 06:20:01;;;;;;;14.13;9.25;;;;;;;;;;4944504;28;20126;-84
2022/04/28 06:22:26;;;;;;;16.90;9.52;;;;;;;;;;4959762;28;20054;-85
2022/04/28 06:24:55;;;;;;;14.07;9.63;;;;;;;;;;4972801;28;20046;-85
2022/04/28 06:27:21;;;;;;;15.95;9.88;;;;;;;;;;4945987;28;20050;-84
2022/04/28 06:29:48;;;;;;;15.38;9.25;;;;;;;;;;4940640;28;20027;-84
2022/04/28 06:32:15;;;;;;;12.80;8.85;;;;;;;;;;4961556;28;20404;-84
2022/04/28 06:34:41;;;;;;;16.98;9.65;;;;;;;;;;4957864;28;20434;-84
2022/04/28 06:37:06;;;;;;;14.32;9.15;;;;;;;;;;4959457;28;20064;-85
2022/04/28 06:39:31;;;;;;;14.82;9.10;;;;;;;;;;4948492;28;20086;-84
2022/04/28 06:41:56;;;;;;;12.00;9.10;;;;;;;;;;4962396;28;20062;-84
2022/04/28 06:44:22;;;;;;;14.23;9.27;;;;;;;;;;4963669;28;20034;-83
2022/04/28 06:46:47;;;;;;;14.20;9.13;;;;;;;;;;4951467;28;20125;-84
2022/04/28 06:49:15;;;;;;;17.63;8.85;;;;;;;;;;4948681;28;20510;-87
2022/04/28 06:51:40;;;;;;;18.33;9.20;;;;;;;;;;4976813;28;20139;-88
2022/04/28 06:54:06;;;;;;;14.95;8.82;;;;;;;;;;4948736;28;20053;-88
2022/04/28 06:56:31;;;;;;;16.17;8.68;;;;;;;;;;4948042;28;20034;-88
2022/04/28 06:58:56;;;;;;;13.88;9.20;;;;;;;;;;4952090;28;20037;-89
2022/04/28 07:01:22;;;;;;;13.77;8.43;;;;;;;;;;4946244;28;20039;-88
2022/04/28 07:03:47;;;;;;;13.90;9.30;;;;;;;;;;4954080;28;20041;-89
2022/04/28 07:06:12;;;;;;;13.43;9.15;;;;;;;;;;4959608;28;20039;-88
2022/04/28 07:08:38;;;;;;;16.08;9.10;;;;;;;;;;4959643;28;20046;-85
2022/04/28 07:11:03;;;;;;;15.38;9.05;;;;;;;;;;4979192;28;20109;-90
2022/04/28 07:13:29;;;;;;;13.75;8.70;;;;;;;;;;4952933;28;20057;-87
2022/04/28 07:15:54;;;;;;;12.07;8.55;;;;;;;;;;4952980;28;20045;-86
2022/04/28 07:18:19;;;;;;;14.90;8.95;;;;;;;;;;4952698;28;20337;-88
2022/04/28 07:20:45;;;;;;;16.85;9.35;;;;;;;;;;4946412;28;20438;-88
2022/04/28 07:23:10;;;;;;;15.43;9.07;;;;;;;;;;4951895;28;20035;-85
2022/04/28 07:25:36;;;;;;;13.20;8.52;;;;;;;;;;4945554;28;20679;-79
2022/04/28 07:28:01;;;;;;;14.43;9.00;;;;;;;;;;4967763;28;20112;-79
2022/04/28 07:30:27;;;;;;;14.02;8.75;;;;;;;;;;4959452;28;20034;-80
2022/04/28 07:32:52;;;;;;;14.95;8.70;;;;;;;;;;4946375;28;20042;-80
2022/04/28 07:35:19;;;;;;;12.32;8.05;;;;;;;;;;4962680;28;20041;-79
2022/04/28 07:37:45;;;;;;;11.25;8.43;;;;;;;;;;4952064;28;20064;-79
2022/04/28 07:40:10;;;;;;;14.98;8.60;;;;;;;;;;4960189;28;20390;-80
2022/04/28 07:42:36;;;;;;;11.98;7.13;;;;;;;;;;4945377;28;20034;-80
2022/04/28 07:45:01;;;;;;;12.88;7.35;;;;;;;;;;4975679;28;20165;-80
2022/04/28 07:47:27;;;;;;;14.27;7.20;;;;;;;;;;4951781;28;20394;-79
2022/04/28 07:49:53;;;;;;;14.77;6.80;;;;;;;;;;4949091;28;20034;-79
2022/04/28 07:52:18;;;;;;;13.18;6.30;;;;;;;;;;4945313;28;20038;-79
2022/04/28 07:54:44;;;;;;;15.25;6.13;;;;;;;;;;4949353;28;20030;-80
2022/04/28 07:57:09;;;;;;;10.98;6.55;;;;;;;;;;4953269;28;20045;-82
2022/04/28 07:59:34;;;;;;;13.35;6.50;;;;;;;;;;4952286;28;20508;-81
2022/04/28 08:02:03;;;;;;;13.73;6.82;;;;;;;;;;4946060;28;20031;-81
2022/04/28 08:04:28;;;;;;;11.68;5.70;;;;;;;;;;4959965;28;20043;-80
2022/04/28 08:06:53;;;;;;;10.20;5.60;;;;;;;;;;4913698;28;1057952;-80
2022/04/28 08:09:19;;;;;;;10.60;5.25;;;;;;;;;;4977320;28;20394;-80
2022/04/28 08:11:45;;;;;;;14.30;5.88;;;;;;;;;;4960314;28;20066;-80
2022/04/28 08:14:10;;;;;;;10.27;5.97;;;;;;;;;;4961089;28;20088;-81
2022/04/28 08:16:35;;;;;;;12.73;5.93;;;;;;;;;;4960422;28;20041;-80
2022/04/28 08:19:02;;;;;;;10.95;5.45;;;;;;;;;;4947777;28;20035;-81
2022/04/28 08:21:28;;;;;;;14.40;6.28;;;;;;;;;;4962447;28;20744;-80
2022/04/28 08:23:53;;;;;;;13.38;6.45;;;;;;;;;;4947033;28;20036;-80
2022/04/28 08:26:18;;;;;;;15.18;6.75;;;;;;;;;;4961041;28;20049;-81
2022/04/28 08:28:44;;;;;;;13.32;5.80;;;;;;;;;;4968333;28;20406;-80
2022/04/28 08:31:09;;;;;;;11.90;5.30;;;;;;;;;;4966179;28;20042;-82
2022/04/28 08:33:35;;;;;;;12.05;5.22;;;;;;;;;;4944063;28;20066;-81
2022/04/28 08:36:00;;;;;;;12.25;4.97;;;;;;;;;;4945506;28;20038;-81
2022/04/28 08:38:26;;;;;;;10.90;4.60;;;;;;;;;;4953808;28;20041;-82
2022/04/28 08:40:57;;;;;;;9.43;4.28;;;;;;;;;;4947687;28;20393;-81
2022/04/28 08:43:23;;;;;;;8.88;3.97;;;;;;;;;;4945518;28;20432;-82
2022/04/28 08:48:41;;;;;;;8.13;4.32;;;;;;;;;;4962628;28;20050;-81
2022/04/28 08:51:08;;;;;;;10.48;4.55;;;;;;;;;;4958978;28;20444;-82
2022/04/28 08:53:34;;;;;;;7.47;3.65;;;;;;;;;;4943812;28;20569;-82
2022/04/28 08:55:59;;;;;;;10.27;3.90;;;;;;;;;;4959578;28;20113;-81
2022/04/28 08:58:24;;;;;;;10.38;3.90;;;;;;;;;;4950741;28;20234;-81
2022/04/28 09:00:51;;;;;;;10.57;4.00;;;;;;;;;;4957974;28;20030;-82
2022/04/28 09:03:16;;;;;;;11.73;3.80;;;;;;;;;;4951281;28;20027;-80
2022/04/28 09:05:43;;;;;;;7.40;3.33;;;;;;;;;;4939810;28;20644;-80
2022/04/28 09:08:08;;;;;;;8.00;3.03;;;;;;;;;;4947222;28;20426;-82
2022/04/28 09:10:34;;;;;;;9.48;3.30;;;;;;;;;;4949496;28;20038;-82
2022/04/28 09:14:09;;;;;;;5.65;2.90;;;;;;;;;;4945867;28;20034;-81
2022/04/28 09:15:48;;;;;;;5.97;3.47;;;;;;;;;;4960167;28;20498;-83
2022/04/28 09:18:15;;;;;;;7.00;3.37;;;;;;;;;;4958133;28;20389;-80
2022/04/28 09:20:42;;;;;;;7.38;3.38;;;;;;;;;;4941171;28;20281;-81
2022/04/28 09:23:11;;;;;;;7.38;3.70;;;;;;;;;;4960497;28;20437;-81
2022/04/28 09:25:42;;;;;;;7.57;3.67;;;;;;;;;;4945605;28;20042;-82
2022/04/28 09:28:10;;;;;;;7.68;3.97;;;;;;;;;;4962219;28;20498;-81
2022/04/28 09:30:49;;;;;;;8.90;3.50;;;;;;;;;;4974623;28;20030;-83
2022/04/28 09:33:16;;;;;;;5.60;3.28;;;;;;;;;;4975518;28;20533;-92
2022/04/28 09:35:45;;;;;;;9.30;7.45;;;;;;;;;;4961723;28;20125;-86
2022/04/28 09:38:13;;;;;;;8.57;3.80;;;;;;;;;;4961934;28;20030;-91
2022/04/28 09:43:24;;;;;;;10.65;4.47;;;;;;;;;;4965731;28;20087;-86
2022/04/28 09:45:50;;;;;;;7.35;4.30;;;;;;;;;;4944758;28;20045;-85
2022/04/28 09:48:17;;;;;;;7.25;4.10;;;;;;;;;;4946945;28;20039;-89
2022/04/28 09:50:42;;;;;;;8.40;4.10;;;;;;;;;;4962308;28;20037;-90
2022/04/28 09:53:08;;;;;;;9.27;4.00;;;;;;;;;;4963565;28;20034;-87
2022/04/28 09:55:34;;;;;;;8.05;4.18;;;;;;;;;;4959106;28;20031;-82
2022/04/28 09:57:59;;;;;;;9.20;4.50;;;;;;;;;;4943881;28;20034;-82
2022/04/28 10:00:25;;;;;;;6.70;3.80;;;;;;;;;;4944235;28;20046;-84
2022/04/28 10:02:50;;;;;;;7.97;3.95;;;;;;;;;;4960671;28;20053;-84
2022/04/28 10:05:20;;;;;;;8.75;3.50;;;;;;;;;;4948817;28;20508;-84
2022/04/28 10:07:47;;;;;;;7.53;3.53;;;;;;;;;;4961008;28;20037;-83
2022/04/28 10:10:12;;;;;;;7.60;3.90;;;;;;;;;;4955379;28;20523;-83
2022/04/28 10:12:39;;;;;;;7.57;4.15;;;;;;;;;;4949023;28;20035;-82
2022/04/28 10:15:06;;;;;;;9.55;3.75;;;;;;;;;;4959614;28;20070;-83
2022/04/28 10:17:47;;;;;;;6.85;4.10;;;;;;;;;;4939942;28;20200;-83
2022/04/28 10:20:23;;;;;;;7.50;4.03;;;;;;;;;;4948198;28;20049;-83
2022/04/28 10:22:51;;;;;;;8.23;5.03;;;;;;;;;;4950025;28;20433;-82
2022/04/28 10:33:45;;;;;;;10.73;4.78;;;;;;;;;;4960658;28;20066;-83
2022/04/28 10:36:17;;;;;;;;;;;;;;;;;;4973217;28;20042;-82
2022/04/28 10:39:07;;;;;;;9.40;3.65;;;;;;;;;;4943445;28;19923;-82
2022/04/28 10:41:33;;;;;;;7.53;3.70;;;;;;;;;;4940571;28;20089;-82
2022/04/28 10:44:00;;;;;;;6.40;3.28;;;;;;;;;;4948104;28;20493;-82
2022/04/28 10:46:30;;;;;;;8.38;2.90;;;;;;;;;;4961667;28;20038;-84
2022/04/28 10:49:01;;;;;;;6.63;3.20;;;;;;;;;;4972614;28;20041;-84
2022/04/28 10:51:32;;;;;;;8.57;3.75;;;;;;;;;;4948866;28;20459;-84
2022/04/28 10:54:03;;;;;;;8.52;3.67;;;;;;;;;;4940091;28;20042;-83
2022/04/28 10:56:31;;;;;;;8.48;3.78;;;;;;;;;;4974259;28;20039;-83
2022/04/28 10:58:57;;;;;;;;;;;;;;;;;;4960380;28;20030;-84
2022/04/28 11:01:32;;;;;;;7.93;4.20;;;;;;;;;;4973319;28;19925;-82
2022/04/28 11:04:02;;;;;;;8.63;4.53;;;;;;;;;;4965441;28;20026;-82
2022/04/28 11:06:37;;;;;;;8.80;4.47;;;;;;;;;;4965015;28;20606;-82
2022/04/28 11:09:05;;;;;;;8.77;4.00;;;;;;;;;;4942900;28;20039;-83
2022/04/28 11:11:57;;;;;;;11.95;4.50;;;;;;;;;;4946793;28;20526;-83
2022/04/28 11:14:22;;;;;;;6.63;3.78;;;;;;;;;;4952534;28;20058;-84
2022/04/28 11:16:51;;;;;;;7.70;3.70;;;;;;;;;;4957516;28;20126;-85
2022/04/28 11:19:17;;;;;;;7.47;3.10;;;;;;;;;;4954218;28;20041;-87
2022/04/28 11:21:43;;;;;;;8.82;3.10;;;;;;;;;;4975702;28;20405;-85
2022/04/28 11:24:09;;;;;;;7.55;3.90;;;;;;;;;;4949378;28;20126;-87
2022/04/28 11:26:36;;;;;;;8.43;3.90;;;;;;;;;;4962952;28;20173;-85
2022/04/28 11:29:05;;;;;;;;;;;;;;;;;;4949617;28;20030;-86
2022/04/28 11:31:31;;;;;;;8.13;3.17;;;;;;;;;;4968146;28;19924;-87
2022/04/28 11:33:57;;;;;;;7.32;3.67;;;;;;;;;;4953405;28;20042;-85
2022/04/28 11:36:27;;;;;;;7.78;3.40;;;;;;;;;;4961375;28;20038;-87
2022/04/28 11:38:57;;;;;;;5.88;2.95;;;;;;;;;;4951286;28;20042;-82
2022/04/28 11:41:34;;;;;;;7.35;2.95;;;;;;;;;;4946675;28;20034;-85
2022/04/28 11:44:01;;;;;;;5.63;3.00;;;;;;;;;;4963165;28;20534;-83
2022/04/28 11:46:26;;;;;;;;;;;;;;;;;;4935055;28;20821;-82
2022/04/28 11:48:53;;;;;;;7.87;3.67;;;;;;;;;;4950144;28;19918;-84
2022/04/28 11:51:22;;;;;;;10.85;3.42;;;;;;;;;;4951565;28;20035;-85
2022/04/28 11:53:47;;;;;;;5.88;3.20;;;;;;;;;;4964383;28;20567;-84
2022/04/28 11:56:25;;;;;;;8.68;3.30;;;;;;;;;;4945049;28;20038;-83
2022/04/28 11:58:52;;;;;;;6.45;2.65;;;;;;;;;;4975509;28;20129;-83
2022/04/28 12:01:20;;;;;;;8.75;3.35;;;;;;;;;;4967787;28;20383;-82
2022/04/28 12:03:58;;;;;;;8.30;3.13;;;;;;;;;;4943086;28;20440;-83
2022/04/28 12:06:24;;;;;;;6.55;3.17;;;;;;;;;;4960787;28;20138;-83
2022/04/28 12:08:55;;;;;;;6.10;3.35;;;;;;;;;;4959757;28;20494;-82
2022/04/28 12:14:23;;;;;;;8.35;3.63;;;;;;;;;;4967907;28;20046;-84
2022/04/28 12:20:10;;;;;;;6.43;3.60;;;;;;;;;;4962108;28;20088;-84
2022/04/28 12:22:37;;;;;;;6.72;3.20;;;;;;;;;;4941549;28;20034;-83
2022/04/28 12:25:17;;;;;;;6.50;3.13;;;;;;;;;;4958628;28;20089;-84
2022/04/28 12:27:48;;;;;;;7.47;3.60;;;;;;;;;;4949731;28;20031;-84
2022/04/28 12:30:18;;;;;;;7.53;3.28;;;;;;;;;;4951231;28;20394;-83
2022/04/28 12:32:51;;;;;;;8.13;3.28;;;;;;;;;;4961187;28;20482;-84
2022/04/28 12:35:36;;;;;;;8.60;3.70;;;;;;;;;;4962592;28;20516;-83
2022/04/28 12:38:10;;;;;;;13.60;3.70;;;;;;;;;;4958862;28;20038;-83
2022/04/28 12:40:44;;;;;;;10.02;3.55;;;;;;;;;;4959955;28;20097;-83
2022/04/28 12:43:12;;;;;;;7.10;3.83;;;;;;;;;;4942046;28;20046;-84
2022/04/28 12:45:51;;;;;;;8.05;3.20;;;;;;;;;;4973008;28;20075;-85
2022/04/28 12:48:32;;;;;;;6.78;2.97;;;;;;;;;;4958414;28;20410;-84
2022/04/28 12:51:21;;;;;;;8.18;3.42;;;;;;;;;;4957352;28;20124;-84
2022/04/28 12:53:54;;;;;;;11.85;3.65;;;;;;;;;;4960396;28;20151;-84
2022/04/28 12:56:30;;;;;;;7.38;3.33;;;;;;;;;;4973373;28;20364;-84
2022/04/28 12:59:06;;;;;;;6.80;3.30;;;;;;;;;;4958558;28;20034;-85
2022/04/28 13:01:32;;;;;;;8.95;3.55;;;;;;;;;;4941444;28;20039;-84
2022/04/28 13:04:02;;;;;;;7.13;3.05;;;;;;;;;;4949721;28;20385;-85
2022/04/28 13:06:30;;;;;;;7.65;2.92;;;;;;;;;;4945586;28;20106;-84
2022/04/28 13:08:57;;;;;;;9.98;3.25;;;;;;;;;;4958966;28;20482;-85
2022/04/28 13:11:32;;;;;;;;;;;;;;;;;;4951962;28;20034;-84
2022/04/28 13:13:59;;;;;;;10.35;3.15;;;;;;;;;;4960319;28;20369;-84
2022/04/28 13:16:26;;;;;;;7.35;3.35;;;;;;;;;;4975394;28;20042;-87
2022/04/28 13:18:52;;;;;;;7.47;3.38;;;;;;;;;;4954738;28;20034;-86
2022/04/28 13:21:18;;;;;;;6.28;2.70;;;;;;;;;;4941242;28;20053;-90
2022/04/28 13:23:44;;;;;;;10.52;2.97;;;;;;;;;;4964674;28;20030;-91
2022/04/28 13:26:11;;;;;;;5.43;3.00;;;;;;;;;;4959813;28;20058;-90
2022/04/28 13:28:37;;;;;;;8.18;3.10;;;;;;;;;;4959199;28;20039;-90
2022/04/28 13:31:03;;;;;;;8.52;3.70;;;;;;;;;;4946336;28;20089;-91
2022/04/28 13:33:28;;;;;;;7.72;3.47;;;;;;;;;;4947155;28;20402;-85
2022/04/28 13:35:53;;;;;;;7.22;3.20;;;;;;;;;;4965931;28;20122;-90
2022/04/28 13:38:19;;;;;;;6.93;3.08;;;;;;;;;;4965123;28;20030;-91
2022/04/28 13:40:44;;;;;;;10.10;3.40;;;;;;;;;;4945499;28;20037;-89
2022/04/28 13:43:10;;;;;;;9.27;3.10;;;;;;;;;;4954323;28;20039;-88
2022/04/28 13:45:35;;;;;;;8.85;3.50;;;;;;;;;;4959264;28;20038;-86
2022/04/28 13:48:00;;;;;;;11.70;3.45;;;;;;;;;;4972933;28;20038;-86
2022/04/28 13:50:25;;;;;;;7.18;3.22;;;;;;;;;;4948388;28;20046;-84
2022/04/28 13:52:51;;;;;;;6.47;2.80;;;;;;;;;;4947910;28;20030;-88
2022/04/28 13:55:17;;;;;;;7.70;2.80;;;;;;;;;;4964716;28;20054;-86
2022/04/28 13:57:43;;;;;;;10.48;3.35;;;;;;;;;;4954258;28;20045;-85
2022/04/28 14:00:10;;;;;;;7.18;2.55;;;;;;;;;;4975043;28;20038;-87
2022/04/28 14:02:35;;;;;;;6.82;3.00;;;;;;;;;;4963507;28;20589;-86
2022/04/28 14:05:01;;;;;;;6.60;3.00;;;;;;;;;;4933253;28;20057;-87
2022/04/28 14:07:26;;;;;;;6.20;2.63;;;;;;;;;;4946381;28;20393;-87
2022/04/28 14:09:52;;;;;;;7.05;2.55;;;;;;;;;;4956420;28;20114;-88
2022/04/28 14:12:18;;;;;;;6.30;2.50;;;;;;;;;;4948702;28;20038;-91
2022/04/28 14:14:43;;;;;;;7.80;2.40;;;;;;;;;;4965243;28;20497;-86
2022/04/28 14:17:09;;;;;;;5.20;2.15;;;;;;;;;;4951755;28;20086;-84
2022/04/28 14:19:34;;;;;;;9.07;2.50;;;;;;;;;;4951243;28;20565;-84
2022/04/28 14:22:02;;;;;;;5.88;2.13;;;;;;;;;;4959940;28;20401;-85
2022/04/28 14:24:27;;;;;;;7.88;2.47;;;;;;;;;;4968039;28;20045;-80
2022/04/28 14:26:52;;;;;;;6.78;3.00;;;;;;;;;;4951393;28;20031;-81
2022/04/28 14:29:18;;;;;;;7.57;2.78;;;;;;;;;;4961295;28;20034;-81
2022/04/28 14:31:47;;;;;;;7.10;2.90;;;;;;;;;;4958435;28;20801;-81
2022/04/28 14:34:12;;;;;;;6.78;2.40;;;;;;;;;;4964381;28;20106;-81
2022/04/28 14:36:38;;;;;;;9.85;2.30;;;;;;;;;;4949338;28;20126;-81
2022/04/28 14:39:03;;;;;;;7.03;2.05;;;;;;;;;;4942918;28;20041;-82
2022/04/28 14:41:28;;;;;;;6.93;2.28;;;;;;;;;;4974352;28;20034;-81
2022/04/28 14:43:54;;;;;;;8.07;2.47;;;;;;;;;;4963224;28;20696;-80
2022/04/28 14:46:19;;;;;;;5.93;2.20;;;;;;;;;;4950598;28;20038;-80
2022/04/28 14:54:12;;;;;;;8.13;2.60;;;;;;;;;;4977321;28;20041;-78
2022/04/28 14:56:37;;;;;;;7.70;2.50;;;;;;;;;;4951096;28;20034;-82
2022/04/28 14:59:03;;;;;;;9.70;2.25;;;;;;;;;;4961558;28;20044;-82
2022/04/28 15:01:28;;;;;;;6.90;2.20;;;;;;;;;;4976974;28;20034;-82
2022/04/28 15:03:53;;;;;;;5.72;2.30;;;;;;;;;;4961610;28;20461;-82
2022/04/28 15:06:19;;;;;;;5.50;2.15;;;;;;;;;;4967016;28;20042;-84
2022/04/28 15:08:45;;;;;;;5.22;1.85;;;;;;;;;;4962340;28;20043;-82
2022/04/28 15:11:11;;;;;;;5.32;2.33;;;;;;;;;;4960758;28;20042;-83
2022/04/28 15:13:37;;;;;;;4.78;2.00;;;;;;;;;;4953703;28;20520;-82
2022/04/28 15:16:02;;;;;;;6.13;2.30;;;;;;;;;;4952820;28;20031;-82
2022/04/28 15:18:28;;;;;;;6.47;2.53;;;;;;;;;;4967647;28;20671;-81
2022/04/28 15:20:53;;;;;;;6.97;2.75;;;;;;;;;;4978341;28;20034;-82